DLH403 KEWR-EDDF
Flight info
| Callsign | DLH403 |
|---|---|
| Flight time | N/A |
| Altitude | 37000 |
| Route | MERIT DCT HFD DCT PUT DCT BOS DCT KANNI N133B RELIC/M086F390 NATW LEKVA/N0491F390 DCT NORLA/N0493F410 DCT PEWBI DCT OXLOW DCT KONAN UL607 KOK DCT SPI T180 NIVNU/N0456F230 T847 IMCOM IMCOM1A |
| Aircraft | B748/H-SDE3FGHIM1M2RWXY/LB1 |
Departure
| Time | N/A |
|---|---|
| Airport | Newark Liberty International Airport (KEWR) |
Arrival
| Time | 2026-04-16 14:14 |
|---|---|
| Airport | Frankfurt Main Airport (EDDF) |
| Time | Latitude | Longitude | Altitude | Speed | Heading |
|---|---|---|---|---|---|
| 2026-04-16 13:55 | 50.05520 | 8.19519 | 11026 ft | 384 kts | 64° |
| 2026-04-16 13:55 | 50.06474 | 8.23399 | 11030 ft | 385 kts | 71° |
| 2026-04-16 13:55 | 50.07267 | 8.27366 | 11019 ft | 381 kts | 72° |
| 2026-04-16 13:55 | 50.08100 | 8.31305 | 11026 ft | 383 kts | 68° |
| 2026-04-16 13:56 | 50.09075 | 8.35161 | 11024 ft | 382 kts | 66° |
| 2026-04-16 13:56 | 50.10052 | 8.38958 | 11021 ft | 382 kts | 68° |
| 2026-04-16 13:56 | 50.10977 | 8.42843 | 11017 ft | 383 kts | 69° |
| 2026-04-16 13:56 | 50.11883 | 8.46748 | 11018 ft | 384 kts | 69° |
| 2026-04-16 13:57 | 50.12819 | 8.50669 | 10974 ft | 384 kts | 68° |
| 2026-04-16 13:57 | 50.13756 | 8.54538 | 10425 ft | 380 kts | 68° |
| 2026-04-16 13:57 | 50.14675 | 8.58375 | 9847 ft | 374 kts | 69° |
| 2026-04-16 13:58 | 50.16364 | 8.65511 | 8395 ft | 333 kts | 69° |
| 2026-04-16 13:58 | 50.17140 | 8.68775 | 8036 ft | 308 kts | 69° |
| 2026-04-16 13:58 | 50.17873 | 8.71856 | 7987 ft | 296 kts | 69° |
| 2026-04-16 13:58 | 50.18571 | 8.74799 | 7992 ft | 285 kts | 69° |
| 2026-04-16 13:59 | 50.19270 | 8.77746 | 7992 ft | 290 kts | 69° |
| 2026-04-16 13:59 | 50.19956 | 8.80654 | 7993 ft | 280 kts | 69° |
| 2026-04-16 13:59 | 50.20637 | 8.83547 | 8000 ft | 289 kts | 69° |
| 2026-04-16 13:59 | 50.21328 | 8.86487 | 7994 ft | 287 kts | 69° |
| 2026-04-16 14:00 | 50.22010 | 8.89387 | 7998 ft | 289 kts | 69° |
| 2026-04-16 14:00 | 50.22700 | 8.92333 | 7989 ft | 290 kts | 69° |
| 2026-04-16 14:00 | 50.23397 | 8.95308 | 7991 ft | 286 kts | 69° |
| 2026-04-16 14:00 | 50.24085 | 8.98249 | 7993 ft | 289 kts | 69° |
| 2026-04-16 14:01 | 50.24772 | 9.01189 | 7993 ft | 289 kts | 69° |
| 2026-04-16 14:01 | 50.25448 | 9.04091 | 7990 ft | 278 kts | 69° |
| 2026-04-16 14:01 | 50.26112 | 9.06942 | 7991 ft | 277 kts | 69° |
| 2026-04-16 14:01 | 50.26774 | 9.09786 | 7935 ft | 279 kts | 69° |
| 2026-04-16 14:02 | 50.27436 | 9.12638 | 7666 ft | 278 kts | 69° |
| 2026-04-16 14:02 | 50.28094 | 9.15475 | 7448 ft | 277 kts | 69° |
| 2026-04-16 14:02 | 50.28740 | 9.18267 | 7244 ft | 277 kts | 69° |
| 2026-04-16 14:02 | 50.29396 | 9.21103 | 7047 ft | 276 kts | 69° |
| 2026-04-16 14:03 | 50.29915 | 9.23963 | 6829 ft | 275 kts | 86° |
| 2026-04-16 14:03 | 50.29613 | 9.26901 | 6638 ft | 274 kts | 115° |
| 2026-04-16 14:03 | 50.28481 | 9.29251 | 6434 ft | 271 kts | 143° |
| 2026-04-16 14:03 | 50.26807 | 9.30474 | 6226 ft | 267 kts | 172° |
| 2026-04-16 14:04 | 50.24970 | 9.30741 | 6024 ft | 264 kts | 179° |
| 2026-04-16 14:04 | 50.23143 | 9.30916 | 5821 ft | 262 kts | 183° |
| 2026-04-16 14:04 | 50.21392 | 9.30336 | 5627 ft | 257 kts | 210° |
| 2026-04-16 14:04 | 50.20087 | 9.28533 | 5493 ft | 248 kts | 240° |
| 2026-04-16 14:05 | 50.19518 | 9.26059 | 5438 ft | 241 kts | 260° |
| 2026-04-16 14:05 | 50.19199 | 9.23506 | 5294 ft | 239 kts | 257° |
| 2026-04-16 14:05 | 50.18730 | 9.21056 | 5162 ft | 238 kts | 251° |
| 2026-04-16 14:05 | 50.18143 | 9.18651 | 5021 ft | 237 kts | 249° |
| 2026-04-16 14:06 | 50.17558 | 9.16253 | 4860 ft | 236 kts | 250° |
| 2026-04-16 14:06 | 50.16992 | 9.13814 | 4684 ft | 235 kts | 250° |
| 2026-04-16 14:06 | 50.16447 | 9.11443 | 4550 ft | 235 kts | 250° |
| 2026-04-16 14:06 | 50.15893 | 9.09058 | 4417 ft | 234 kts | 250° |
| 2026-04-16 14:07 | 50.15335 | 9.06672 | 4268 ft | 233 kts | 250° |
| 2026-04-16 14:07 | 50.14781 | 9.04302 | 4104 ft | 232 kts | 250° |
| 2026-04-16 14:07 | 50.14229 | 9.01941 | 4009 ft | 230 kts | 250° |
| 2026-04-16 14:07 | 50.13706 | 8.99587 | 4002 ft | 231 kts | 252° |
| 2026-04-16 14:08 | 50.13182 | 8.97203 | 4004 ft | 233 kts | 250° |
| 2026-04-16 14:08 | 50.12628 | 8.94844 | 4001 ft | 230 kts | 250° |
| 2026-04-16 14:08 | 50.12087 | 8.92569 | 4007 ft | 220 kts | 250° |
| 2026-04-16 14:08 | 50.11544 | 8.90284 | 3999 ft | 218 kts | 250° |
| 2026-04-16 14:09 | 50.11012 | 8.88057 | 4018 ft | 213 kts | 250° |
| 2026-04-16 14:09 | 50.10505 | 8.85924 | 3993 ft | 214 kts | 250° |
| 2026-04-16 14:09 | 50.10001 | 8.83811 | 3737 ft | 202 kts | 250° |
| 2026-04-16 14:09 | 50.09523 | 8.81808 | 3507 ft | 194 kts | 250° |
| 2026-04-16 14:10 | 50.09053 | 8.79831 | 3250 ft | 195 kts | 250° |
| 2026-04-16 14:10 | 50.08595 | 8.77913 | 2988 ft | 185 kts | 250° |
| 2026-04-16 14:10 | 50.08151 | 8.76047 | 2726 ft | 177 kts | 250° |
| 2026-04-16 14:10 | 50.07741 | 8.74322 | 2445 ft | 162 kts | 250° |
| 2026-04-16 14:11 | 50.07359 | 8.72747 | 2248 ft | 154 kts | 250° |
| 2026-04-16 14:11 | 50.06974 | 8.71156 | 2087 ft | 153 kts | 249° |
| 2026-04-16 14:11 | 50.06604 | 8.69592 | 1832 ft | 153 kts | 250° |
| 2026-04-16 14:11 | 50.06256 | 8.68120 | 1662 ft | 140 kts | 250° |
| 2026-04-16 14:12 | 50.05936 | 8.66713 | 1408 ft | 135 kts | 249° |
| 2026-04-16 14:12 | 50.05594 | 8.65337 | 1221 ft | 141 kts | 249° |
| 2026-04-16 14:12 | 50.05259 | 8.63876 | 1112 ft | 141 kts | 249° |
| 2026-04-16 14:12 | 50.04920 | 8.62450 | 938 ft | 141 kts | 248° |
| 2026-04-16 14:13 | 50.04575 | 8.61025 | 743 ft | 143 kts | 248° |
| 2026-04-16 14:13 | 50.04233 | 8.59577 | 514 ft | 142 kts | 248° |
| 2026-04-16 14:13 | 50.03891 | 8.58182 | 363 ft | 128 kts | 250° |
| 2026-04-16 14:13 | 50.03648 | 8.57157 | 362 ft | 69 kts | 249° |
| 2026-04-16 14:14 | 50.03548 | 8.56742 | 363 ft | 20 kts | 249° |
| 2026-04-16 14:14 | 50.03520 | 8.56625 | 361 ft | 9 kts | 250° |
| 2026-04-16 14:14 | 50.03484 | 8.56470 | 363 ft | 21 kts | 249° |
| 2026-04-16 14:14 | 50.03421 | 8.56213 | 360 ft | 30 kts | 250° |
| 2026-04-16 14:15 | 50.03337 | 8.55862 | 360 ft | 39 kts | 249° |
| 2026-04-16 14:15 | 50.03318 | 8.55423 | 362 ft | 42 kts | 278° |
| 2026-04-16 14:15 | 50.03380 | 8.55014 | 362 ft | 28 kts | 291° |
| 2026-04-16 14:15 | 50.03403 | 8.54937 | 360 ft | 0 kts | 297° |
| 2026-04-16 14:18 | 50.03406 | 8.54927 | 362 ft | 2 kts | 297° |
| 2026-04-16 14:18 | 50.03414 | 8.54904 | 360 ft | 3 kts | 297° |
| 2026-04-16 14:19 | 50.03435 | 8.54867 | 364 ft | 8 kts | 319° |
| 2026-04-16 14:19 | 50.03513 | 8.54810 | 360 ft | 17 kts | 339° |
| 2026-04-16 14:19 | 50.03652 | 8.54728 | 360 ft | 25 kts | 339° |
| 2026-04-16 14:19 | 50.03770 | 8.54782 | 357 ft | 17 kts | 71° |
| 2026-04-16 14:20 | 50.03811 | 8.54956 | 362 ft | 17 kts | 69° |
| 2026-04-16 14:20 | 50.03854 | 8.55136 | 364 ft | 18 kts | 70° |
| 2026-04-16 14:20 | 50.03897 | 8.55321 | 362 ft | 18 kts | 70° |
| 2026-04-16 14:20 | 50.03936 | 8.55488 | 362 ft | 15 kts | 70° |
| 2026-04-16 14:21 | 50.03967 | 8.55623 | 363 ft | 12 kts | 69° |
| 2026-04-16 14:21 | 50.03996 | 8.55732 | 363 ft | 11 kts | 68° |
| 2026-04-16 14:21 | 50.04026 | 8.55854 | 365 ft | 13 kts | 70° |
| 2026-04-16 14:21 | 50.04061 | 8.56003 | 359 ft | 16 kts | 70° |
| 2026-04-16 14:22 | 50.04096 | 8.56145 | 359 ft | 16 kts | 70° |
| 2026-04-16 14:22 | 50.04142 | 8.56273 | 363 ft | 10 kts | 27° |
| 2026-04-16 14:22 | 50.04204 | 8.56267 | 361 ft | 10 kts | 337° |
| 2026-04-16 14:22 | 50.04277 | 8.56205 | 362 ft | 11 kts | 309° |
| 2026-04-16 14:23 | 50.04279 | 8.56111 | 362 ft | 11 kts | 253° |
| 2026-04-16 14:23 | 50.04272 | 8.55998 | 361 ft | 10 kts | 300° |
| 2026-04-16 14:23 | 50.04369 | 8.55919 | 362 ft | 21 kts | 347° |
| 2026-04-16 14:23 | 50.04500 | 8.55943 | 362 ft | 18 kts | 18° |
| 2026-04-16 14:24 | 50.04561 | 8.55999 | 364 ft | 11 kts | 52° |
| 2026-04-16 14:24 | 50.04579 | 8.56068 | 362 ft | 3 kts | 62° |
| 2026-04-16 14:24 | 50.04591 | 8.56081 | 362 ft | 3 kts | 30° |
| 2026-04-16 14:24 | 50.04615 | 8.56079 | 359 ft | 2 kts | 336° |
| 2026-04-16 14:25 | 50.04626 | 8.56071 | 365 ft | 4 kts | 338° |
| 2026-04-16 14:25 | 50.04659 | 8.56053 | 363 ft | 4 kts | 340° |
| 2026-04-16 14:25 | 50.04666 | 8.56049 | 363 ft | 1 kts | 340° |
| 2026-04-16 14:25 | 50.04669 | 8.56047 | 363 ft | 1 kts | 339° |
| 2026-04-16 14:26 | 50.04670 | 8.56046 | 363 ft | 0 kts | 339° |